createdAt,value
2019-04-26T00:03:29.174Z,11.00
2019-04-26T00:08:34.394Z,11.00
2019-04-26T00:14:03.862Z,11.20
2019-04-26T00:19:07.633Z,11.40
2019-04-26T00:24:11.776Z,11.30
2019-04-26T00:29:15.479Z,11.30
2019-04-26T00:34:19.635Z,11.10
2019-04-26T00:39:25.011Z,11.10
2019-04-26T00:44:29.318Z,11.10
2019-04-26T00:49:43.495Z,11.20
2019-04-26T00:54:40.135Z,11.40
2019-04-26T00:59:44.510Z,11.40
2019-04-26T01:04:48.222Z,11.40
2019-04-26T01:09:51.933Z,11.30
2019-04-26T01:14:55.647Z,11.30
2019-04-26T01:20:01.009Z,11.30
2019-04-26T01:25:06.458Z,11.30
2019-04-26T01:30:11.194Z,11.30
2019-04-26T01:35:15.141Z,11.30
2019-04-26T01:40:22.018Z,11.40
2019-04-26T01:45:43.666Z,11.40
2019-04-26T01:50:47.520Z,11.40
2019-04-26T01:55:51.619Z,11.40
2019-04-26T02:01:10.602Z,11.30
2019-04-26T02:06:24.947Z,11.30
2019-04-26T02:11:20.286Z,11.20
2019-04-26T02:16:25.055Z,11.10
2019-04-26T02:21:44.320Z,11.10
2019-04-26T02:26:49.310Z,11.20
2019-04-26T02:31:56.716Z,11.20
2019-04-26T02:37:03.263Z,11.30
2019-04-26T02:42:26.621Z,11.30
2019-04-26T02:48:01.663Z,11.30
2019-04-26T02:53:20.688Z,11.30
2019-04-26T02:58:29.634Z,11.30
2019-04-26T03:03:35.373Z,11.30
2019-04-26T03:08:39.766Z,11.30
2019-04-26T03:19:21.870Z,11.30
2019-04-26T03:24:34.566Z,11.30
2019-04-26T03:29:48.146Z,11.20
2019-04-26T03:35:19.110Z,11.20
2019-04-26T03:40:38.916Z,11.30
2019-04-26T03:46:05.744Z,11.30
2019-04-26T03:51:18.325Z,11.30
2019-04-26T03:57:03.273Z,11.40
2019-04-26T04:02:28.466Z,11.50
2019-04-26T04:07:39.226Z,11.60
2019-04-26T04:13:04.387Z,11.80
2019-04-26T04:23:27.159Z,12.50
2019-04-26T04:34:23.571Z,13.00
2019-04-26T04:39:53.573Z,13.10
2019-04-26T04:45:30.702Z,13.90
2019-04-26T04:50:47.578Z,14.70
2019-04-26T04:56:02.871Z,14.70
2019-04-26T05:01:36.476Z,15.40
2019-04-26T05:07:12.850Z,15.90
2019-04-26T05:12:31.463Z,16.30
2019-04-26T05:18:03.673Z,16.70
2019-04-26T05:23:40.231Z,16.80
2019-04-26T05:29:11.518Z,16.70
2019-04-26T05:34:40.573Z,16.40
2019-04-26T05:39:58.475Z,16.50
2019-04-26T05:45:24.322Z,16.40
2019-04-26T05:51:22.092Z,16.30
2019-04-26T05:56:59.794Z,16.60
2019-04-26T06:02:42.307Z,16.90
2019-04-26T06:08:30.639Z,17.20
2019-04-26T06:13:46.419Z,17.50
2019-04-26T06:19:06.654Z,17.60
2019-04-26T06:24:33.406Z,17.90
2019-04-26T06:29:49.689Z,18.30
2019-04-26T06:35:16.335Z,18.70
2019-04-26T06:40:25.696Z,19.20
2019-04-26T06:46:17.750Z,19.80
2019-04-26T06:51:27.402Z,20.10
2019-04-26T06:57:16.783Z,20.30
2019-04-26T07:02:27.901Z,21.00
2019-04-26T07:07:54.132Z,21.30
2019-04-26T07:13:31.745Z,21.20
2019-04-26T07:19:26.641Z,21.50
2019-04-26T07:25:11.439Z,22.20
2019-04-26T07:30:42.223Z,22.20
2019-04-26T07:36:09.887Z,22.50
2019-04-26T07:41:44.514Z,22.90
2019-04-26T08:03:50.813Z,24.30
2019-04-26T08:09:09.612Z,25.10
2019-04-26T08:19:23.979Z,25.70
2019-04-26T08:24:30.726Z,25.50
2019-04-26T08:29:38.026Z,25.40
2019-04-26T08:34:45.253Z,25.40
2019-04-26T08:39:52.012Z,25.50
2019-04-26T08:45:08.888Z,26.20
2019-04-26T08:50:17.705Z,26.50
2019-04-26T08:55:24.654Z,27.20
2019-04-26T09:00:56.642Z,27.20
2019-04-26T09:06:25.343Z,27.60
2019-04-26T09:16:35.311Z,28.00
2019-04-26T09:21:54.441Z,28.90
2019-04-26T09:27:06.102Z,28.80
2019-04-26T09:32:16.002Z,29.50
2019-04-26T09:37:19.865Z,29.00
2019-04-26T09:42:31.375Z,28.90
2019-04-26T09:47:40.540Z,28.90
2019-04-26T09:52:50.189Z,28.90
2019-04-26T09:57:57.023Z,28.80
2019-04-26T10:03:00.920Z,28.80
2019-04-26T10:08:08.418Z,28.80
2019-04-26T10:13:27.121Z,28.90
2019-04-26T10:18:30.885Z,29.40
2019-04-26T10:23:34.589Z,29.50
2019-04-26T10:28:38.322Z,28.80
2019-04-26T10:33:42.279Z,27.90
2019-04-26T10:38:46.346Z,27.90
2019-04-26T10:43:53.193Z,27.70
2019-04-26T10:49:08.207Z,27.40
2019-04-26T10:54:17.535Z,27.60
2019-04-26T10:59:31.963Z,28.50
2019-04-26T11:04:37.331Z,29.50
2019-04-26T11:09:41.178Z,29.30
2019-04-26T11:14:44.947Z,29.10
2019-04-26T11:19:48.746Z,29.20
2019-04-26T11:24:53.816Z,29.40
2019-04-26T11:29:59.669Z,29.60
2019-04-26T11:35:03.934Z,29.80
2019-04-26T11:40:10.223Z,29.60
2019-04-26T11:45:14.759Z,29.10
2019-04-26T11:50:19.608Z,29.40
2019-04-26T11:55:25.366Z,29.60
2019-04-26T12:00:34.302Z,29.70
2019-04-26T12:05:44.926Z,30.20
2019-04-26T12:10:48.610Z,30.20
2019-04-26T12:15:52.353Z,30.50
2019-04-26T12:20:57.175Z,30.10
2019-04-26T12:26:01.462Z,28.90
2019-04-26T12:31:05.849Z,28.30
2019-04-26T12:36:13.358Z,29.00
2019-04-26T12:41:17.159Z,28.50
2019-04-26T12:46:39.662Z,28.00
2019-04-26T12:51:47.296Z,27.80
2019-04-26T12:56:50.066Z,27.60
2019-04-26T13:02:04.961Z,27.60
2019-04-26T13:07:16.956Z,27.40
2019-04-26T13:12:26.006Z,26.90
2019-04-26T13:17:35.744Z,26.50
2019-04-26T13:22:45.987Z,26.10
2019-04-26T13:27:45.574Z,26.00
2019-04-26T13:32:53.494Z,25.90
2019-04-26T13:37:55.709Z,26.20
2019-04-26T13:42:59.469Z,26.20
2019-04-26T13:48:20.990Z,26.20
2019-04-26T13:53:25.820Z,26.10
2019-04-26T13:58:30.114Z,26.20
2019-04-26T14:03:33.930Z,26.30
2019-04-26T14:13:41.158Z,26.30
2019-04-26T14:18:44.866Z,26.60
2019-04-26T14:24:10.431Z,26.30
2019-04-26T14:29:14.594Z,26.40
2019-04-26T14:34:18.287Z,26.00
2019-04-26T14:39:34.997Z,26.00
2019-04-26T14:44:31.435Z,26.30
2019-04-26T14:49:39.249Z,26.30
2019-04-26T14:54:41.389Z,26.10
2019-04-26T14:59:50.270Z,26.10
2019-04-26T15:05:12.222Z,26.30
2019-04-26T15:10:19.128Z,26.60
2019-04-26T15:15:26.914Z,25.80
2019-04-26T15:20:29.381Z,25.30
2019-04-26T15:25:36.765Z,25.50
2019-04-26T15:30:46.410Z,25.50
2019-04-26T15:35:49.922Z,24.20
2019-04-26T15:41:16.637Z,24.20
2019-04-26T15:46:33.685Z,24.20
2019-04-26T15:51:38.246Z,24.20
2019-04-26T15:56:42.292Z,24.30
2019-04-26T16:01:49.035Z,24.30
2019-04-26T16:06:52.498Z,24.30
2019-04-26T16:11:56.368Z,24.20
2019-04-26T16:17:03.222Z,24.00
2019-04-26T16:22:06.730Z,23.90
2019-04-26T16:27:12.543Z,23.70
2019-04-26T16:32:29.562Z,23.50
2019-04-26T16:37:35.175Z,23.30
2019-04-26T16:42:40.257Z,21.90
2019-04-26T16:47:48.524Z,21.00
2019-04-26T16:52:51.255Z,20.70
2019-04-26T16:57:58.357Z,20.70
2019-04-26T17:03:12.110Z,20.70
2019-04-26T17:08:19.205Z,20.60
2019-04-26T17:13:29.876Z,20.40
2019-04-26T17:18:30.000Z,20.10
2019-04-26T17:23:50.010Z,19.80
2019-04-26T17:28:55.637Z,19.60
2019-04-26T17:34:00.968Z,19.50
2019-04-26T17:39:11.069Z,19.30
2019-04-26T17:44:15.514Z,19.10
2019-04-26T17:49:21.464Z,18.90
2019-04-26T17:54:45.620Z,18.80
2019-04-26T17:59:34.644Z,18.60
2019-04-26T18:04:40.613Z,18.20
2019-04-26T18:09:46.684Z,18.00
2019-04-26T18:14:48.722Z,17.90
2019-04-26T18:20:05.193Z,17.60
2019-04-26T18:25:10.879Z,17.50
2019-04-26T18:30:14.942Z,17.50
2019-04-26T18:35:18.637Z,17.40
2019-04-26T18:40:23.697Z,17.30
2019-04-26T18:45:29.645Z,17.00
2019-04-26T18:50:36.510Z,16.90
2019-04-26T18:55:40.295Z,16.80
2019-04-26T19:00:44.513Z,16.60
2019-04-26T19:05:48.251Z,16.30
2019-04-26T19:11:01.016Z,16.30
2019-04-26T19:16:10.567Z,16.00
2019-04-26T19:21:23.682Z,15.90
2019-04-26T19:26:33.000Z,15.80
2019-04-26T19:31:33.398Z,15.50
2019-04-26T19:36:37.235Z,15.50
2019-04-26T19:41:42.068Z,15.30
2019-04-26T19:46:53.980Z,15.30
2019-04-26T19:52:07.002Z,15.20
2019-04-26T19:57:39.043Z,15.20
2019-04-26T20:02:42.171Z,15.10
2019-04-26T20:12:52.746Z,15.00
2019-04-26T20:17:59.998Z,14.90
2019-04-26T20:23:05.770Z,14.90
2019-04-26T20:33:14.796Z,14.80
2019-04-26T20:53:40.091Z,14.60
2019-04-26T20:58:46.699Z,14.50
2019-04-26T21:03:48.122Z,14.40
2019-04-26T21:19:05.910Z,14.20
2019-04-26T21:34:50.797Z,13.90
2019-04-26T21:55:44.141Z,13.80
2019-04-26T22:01:00.989Z,13.70
2019-04-26T22:06:05.446Z,13.70
2019-04-26T22:11:09.372Z,13.60
2019-04-26T22:16:33.797Z,13.60
2019-04-26T22:21:31.686Z,13.60
2019-04-26T22:26:38.110Z,13.60
2019-04-26T22:36:46.093Z,13.60
2019-04-26T22:52:16.501Z,13.50
2019-04-26T22:57:20.494Z,13.40
2019-04-26T23:02:27.724Z,13.30
2019-04-26T23:07:30.311Z,13.20
2019-04-26T23:12:51.830Z,13.10
2019-04-26T23:18:18.689Z,12.90
2019-04-26T23:23:23.659Z,12.90
2019-04-26T23:28:31.823Z,12.90
2019-04-26T23:33:34.177Z,12.80
2019-04-26T23:38:37.877Z,12.90
2019-04-26T23:43:42.012Z,13.10
2019-04-26T23:49:38.636Z,12.40
2019-04-26T23:54:43.005Z,10.60
2019-04-26T23:59:51.087Z,10.20
